新用户注册 忘记密码?
 

域名竞价-快速搜索

本站抢注成功_正在竞价中的域名 (11556) 条记录 [导出列表]

域名 长度 当前价格 域名简介 结束时间 剩余时间 操作
rogersandstephens.com 17 ≈121 -- 2021-06-25 02:35:00 即将结束 [出价]
tourdihanquoc.com 13 ≈121 -- 2021-06-25 02:35:00 即将结束 [出价]
16jun.com 5 ≈121 -- 2021-06-25 02:35:00 即将结束 [出价]
31wband.com 7 ≈121 -- 2021-06-25 02:35:00 即将结束 [出价]
aLihocam.net 8 ≈121 -- 2021-06-25 02:36:03 即将结束 [出价]
americanoL.. 21 ≈155 -- 2021-06-25 02:36:03 即将结束 [出价]
fLoresLayen.com 11 ≈121 -- 2021-06-25 02:36:03 即将结束 [出价]
petshe.com 6 ≈155 -- 2021-06-25 02:36:03 即将结束 [出价]
chaouc.com 6 ≈155 -- 2021-06-25 02:36:03 即将结束 [出价]
abettermLmLead.com 14 ≈128 -- 2021-06-25 02:36:03 即将结束 [出价]
show998.com 7 ≈121 -- 2021-06-25 02:36:03 即将结束 [出价]
medicaid-biLLing.com 16 ≈121 -- 2021-06-25 02:37:03 即将结束 [出价]
Lakefrontpros.com 13 ≈121 -- 2021-06-25 02:37:03 即将结束 [出价]
mpLakedistrict.com 14 ≈121 -- 2021-06-25 02:37:03 即将结束 [出价]
wagababa.com 8 ≈121 4拼:娃噶吧吧 2021-06-25 02:37:03 即将结束 [出价]
dhunmaari.com 9 ≈121 -- 2021-06-25 02:37:03 即将结束 [出价]
fushunx.com 7 ≈134 -- 2021-06-25 02:37:03 即将结束 [出价]
pseudonet.com 9 ≈369 -- 2021-06-25 02:37:03 即将结束 [出价]
chtgzm.com 6 ≈128 -- 2021-06-25 02:37:03 即将结束 [出价]
omegaautotrading.com 16 ≈121 -- 2021-06-25 02:38:00 42秒 [出价]
bidima.com 6 ≈128 3拼:比帝马 2021-06-25 02:38:00 42秒 [出价]
beereeL.com 7 ≈128 -- 2021-06-25 02:38:00 42秒 [出价]
midseries.com 9 ≈119 -- 2021-06-25 02:38:08 50秒 [出价]
raggimpianti.com 12 ≈153 -- 2021-06-25 02:38:09 51秒 [出价]
jincan661.com 9 ≈119 -- 2021-06-25 02:38:09 51秒 [出价]
sobanukirwa.com 11 ≈155 -- 2021-06-25 02:38:59 1分41秒 [出价]
petrochinahrb.com 13 ≈128 -- 2021-06-25 02:38:59 1分41秒 [出价]
sugarhiLLcu.com 11 ≈128 -- 2021-06-25 02:38:59 1分41秒 [出价]
LiveLifebrisbane.com 16 ≈88 -- 2021-06-25 02:39:01 1分43秒 [出价]
fend-air.com 8 ≈153 -- 2021-06-25 02:39:27 2分9秒 [出价]
anchoredmommy.com 13 1294 -- 2021-06-25 02:39:59 2分41秒 [出价]
faktoman.com 8 ≈121 -- 2021-06-25 02:39:59 2分41秒 [出价]
cttuning.com 8 ≈121 -- 2021-06-25 02:39:59 2分41秒 [出价]
qwebaby.com 7 ≈121 -- 2021-06-25 02:39:59 2分41秒 [出价]
773642.com 6 ≈121 -- 2021-06-25 02:39:59 2分41秒 [出价]
55067333.com 8 ≈155 -- 2021-06-25 02:39:59 2分41秒 [出价]
zmifuture.com 9 ≈121 -- 2021-06-25 02:39:59 2分41秒 [出价]
getonLinecourses.net 16 ≈778 -- 2021-06-25 02:39:59 2分41秒 [出价]
stockbargains.net 13 ≈148 -- 2021-06-25 02:39:59 2分41秒 [出价]
civi.net 4 1461 -- 2021-06-25 02:40:43 3分25秒 [出价]
daLLasrushfc.com 12 ≈121 -- 2021-06-25 02:40:59 3分41秒 [出价]
mytarane.com 8 ≈155 -- 2021-06-25 02:40:59 3分41秒 [出价]
youngfire.com 9 ≈235 -- 2021-06-25 02:40:59 3分41秒 [出价]
thepupcrawL.com 11 7652 -- 2021-06-25 02:40:59 3分41秒 [出价]
12w.cc 3 ≈546 -- 2021-06-25 02:41:03 3分45秒 [出价]
coLLierviLLekids.com 16 ≈153 -- 2021-06-25 02:41:14 3分56秒 [出价]
dy47.net 4 ≈119 -- 2021-06-25 02:41:15 3分57秒 [出价]
boLtak.com 6 ≈121 -- 2021-06-25 02:41:17 3分59秒 [出价]
zbxjgm.com 6 2999 -- 2021-06-25 02:41:23 4分5秒 [出价]
virtuaL-kinetics.com 16 ≈119 -- 2021-06-25 02:41:51 4分33秒 [出价]
每页显示:[20] [50] [100] [200] [500